Time;durP1;ratioP1;P1;durP2;ratioP2;P2;SDS_P1;SDS_P2;PMS_P1;PMS_P2;Temp;Humidity;BMP_temperature;BMP_pressure;BME280_temperature;BME280_humidity;BME280_pressure;Samples;Min_cycle;Max_cycle;Signal;HPM_P1;HPM_P2
2024/03/16 00:02:53;;;;;;;13.43;8.23;;;;;;;11.99;100.00;100113.08;5015900;56;1142890;-77
2024/03/16 00:07:58;;;;;;;13.00;8.30;;;;;;;11.94;100.00;100116.62;4980232;57;1142602;-72
2024/03/16 00:13:06;;;;;;;11.73;7.93;;;;;;;11.90;100.00;100105.97;4966325;57;1143103;-73
2024/03/16 00:18:11;;;;;;;10.33;7.87;;;;;;;11.91;100.00;100109.80;4959684;58;1142960;-79
2024/03/16 00:23:19;;;;;;;15.90;8.93;;;;;;;11.87;100.00;100116.83;4916696;57;1142674;-74
2024/03/16 00:28:24;;;;;;;25.73;12.80;;;;;;;11.84;100.00;100115.78;5013139;56;1142766;-78
2024/03/16 00:33:30;;;;;;;19.03;10.73;;;;;;;11.85;100.00;100112.99;5035461;56;1144678;-78
2024/03/16 00:38:36;;;;;;;21.00;11.67;;;;;;;11.83;100.00;100102.17;5018121;56;1145132;-75
2024/03/16 00:43:41;;;;;;;16.17;9.33;;;;;;;11.81;100.00;100098.82;4999645;56;1144890;-77
2024/03/16 00:48:48;;;;;;;12.13;8.43;;;;;;;11.77;100.00;100096.92;5014760;57;1142864;-74
2024/03/16 00:53:54;;;;;;;17.52;8.85;;;;;;;11.70;100.00;100089.64;5085637;56;1142892;-73
2024/03/16 00:58:59;;;;;;;13.20;7.93;;;;;;;11.64;100.00;100089.69;5079093;56;1142993;-76
2024/03/16 01:04:06;;;;;;;14.50;8.03;;;;;;;11.57;100.00;100080.14;5079358;56;1142974;-74
2024/03/16 01:09:16;;;;;;;17.50;8.63;;;;;;;11.57;100.00;100074.84;5099310;56;1143130;-74
2024/03/16 01:14:19;;;;;;;9.83;8.03;;;;;;;11.58;100.00;100065.93;5079162;56;1142966;-76
2024/03/16 01:19:25;;;;;;;13.50;8.07;;;;;;;11.64;100.00;100049.47;5019314;56;1140829;-74
2024/03/16 01:24:30;;;;;;;10.77;7.00;;;;;;;11.64;100.00;100049.47;5098409;56;1142875;-76
2024/03/16 01:29:36;;;;;;;13.90;8.35;;;;;;;11.71;100.00;100051.59;5083926;56;1151209;-78
2024/03/16 01:34:42;;;;;;;12.03;7.03;;;;;;;11.78;100.00;100054.05;5063911;56;1142919;-77
2024/03/16 01:39:49;;;;;;;9.65;7.30;;;;;;;11.78;100.00;100049.59;5098391;57;1142900;-74
2024/03/16 01:45:15;;;;;;;14.33;7.43;;;;;;;11.79;100.00;100057.05;5031181;56;1140523;-75
2024/03/16 01:50:21;;;;;;;10.63;7.53;;;;;;;11.74;100.00;100056.61;4995866;57;1142567;-73
2024/03/16 01:55:27;;;;;;;12.77;7.13;;;;;;;11.68;100.00;100066.42;4995710;56;1143058;-72
2024/03/16 02:00:34;;;;;;;11.83;7.20;;;;;;;11.62;100.00;100060.69;5016032;56;1143414;-77
2024/03/16 02:05:41;;;;;;;9.67;6.40;;;;;;;11.58;100.00;100068.58;4996374;55;1150638;-72
2024/03/16 02:10:47;;;;;;;7.40;5.97;;;;;;;11.54;100.00;100076.92;4997095;55;1140761;-76
2024/03/16 02:15:52;;;;;;;11.80;7.00;;;;;;;11.45;100.00;100074.61;5015683;55;1144581;-77
2024/03/16 02:20:58;;;;;;;9.80;6.95;;;;;;;11.38;100.00;100070.81;5045996;56;1142935;-76
2024/03/16 02:26:04;;;;;;;9.93;6.70;;;;;;;11.34;100.00;100069.89;5066596;56;1141093;-75
2024/03/16 02:31:10;;;;;;;9.90;7.53;;;;;;;11.32;100.00;100071.83;5094522;56;1140769;-77
2024/03/16 02:36:16;;;;;;;12.43;6.87;;;;;;;11.26;100.00;100063.48;5074203;56;1140716;-72
2024/03/16 02:41:22;;;;;;;13.10;7.70;;;;;;;11.25;100.00;100086.11;5025527;56;1142928;-75
2024/03/16 02:46:28;;;;;;;12.20;7.33;;;;;;;11.17;100.00;100072.69;5016238;56;1142932;-75
2024/03/16 02:51:33;;;;;;;9.27;6.53;;;;;;;11.09;100.00;100077.83;4912332;57;1142768;-77
2024/03/16 02:56:39;;;;;;;11.63;7.73;;;;;;;11.04;100.00;100080.86;4917026;57;1140880;-75
2024/03/16 03:01:45;;;;;;;12.00;7.63;;;;;;;11.02;100.00;100085.44;4936638;56;1142911;-77
2024/03/16 03:06:50;;;;;;;13.33;8.07;;;;;;;10.97;100.00;100092.13;4962612;55;1142933;-73
2024/03/16 03:11:56;;;;;;;12.80;7.20;;;;;;;10.92;100.00;100089.86;4973993;57;1143052;-77
2024/03/16 03:17:02;;;;;;;12.57;8.00;;;;;;;10.89;100.00;100096.25;5078080;56;1142911;-72
2024/03/16 03:22:07;;;;;;;12.30;7.37;;;;;;;10.83;100.00;100098.11;4943550;58;1143099;-78
2024/03/16 03:27:13;;;;;;;10.43;7.47;;;;;;;10.79;100.00;100095.37;4996112;57;1143133;-75
2024/03/16 03:32:18;;;;;;;15.17;7.63;;;;;;;10.75;100.00;100097.07;4996177;56;1143146;-76
2024/03/16 03:37:24;;;;;;;9.17;7.20;;;;;;;10.73;100.00;100098.52;5011290;57;1142950;-74
2024/03/16 03:42:33;;;;;;;10.47;7.30;;;;;;;10.72;100.00;100096.00;4996278;56;1140786;-75
2024/03/16 03:48:25;;;;;;;8.77;6.87;;;;;;;10.71;100.00;100094.32;4996480;57;1142705;-75
2024/03/16 03:52:44;;;;;;;11.00;7.37;;;;;;;10.68;100.00;100097.25;5008111;57;1141041;-74
2024/03/16 03:57:49;;;;;;;8.83;6.57;;;;;;;10.67;100.00;100111.44;5029753;56;1143034;-76
2024/03/16 04:02:55;;;;;;;8.37;6.07;;;;;;;10.61;100.00;100104.02;4996168;56;1140812;-78
2024/03/16 04:08:01;;;;;;;9.67;7.13;;;;;;;10.56;100.00;100107.03;4994169;56;1140693;-76
2024/03/16 04:13:07;;;;;;;12.87;7.03;;;;;;;10.53;100.00;100103.35;4990569;57;1141033;-74
2024/03/16 04:18:12;;;;;;;11.40;7.33;;;;;;;10.49;100.00;100106.73;4911296;58;1142842;-75
2024/03/16 04:23:18;;;;;;;9.30;6.20;;;;;;;10.46;100.00;100112.27;4916797;58;1143438;-75
2024/03/16 04:28:24;;;;;;;14.17;6.27;;;;;;;10.38;100.00;100112.08;4936386;57;1141152;-77
2024/03/16 04:33:30;;;;;;;13.17;7.20;;;;;;;10.37;100.00;100116.17;4916349;57;1143160;-77
2024/03/16 04:38:36;;;;;;;13.87;7.20;;;;;;;10.30;100.00;100122.44;4997261;56;1143209;-72
2024/03/16 04:43:44;;;;;;;10.30;6.03;;;;;;;10.26;100.00;100120.16;5016163;56;1142951;-74
2024/03/16 04:48:48;;;;;;;10.00;6.33;;;;;;;10.23;100.00;100118.13;4996953;56;1142785;-77
2024/03/16 04:53:54;;;;;;;13.90;7.37;;;;;;;10.23;100.00;100117.80;4997850;56;1142959;-77
2024/03/16 04:58:59;;;;;;;11.20;7.63;;;;;;;10.22;100.00;100113.00;4997315;56;1143289;-72
2024/03/16 05:04:05;;;;;;;9.77;5.83;;;;;;;10.24;100.00;100111.03;5013570;56;1142840;-77
2024/03/16 05:09:11;;;;;;;10.57;5.57;;;;;;;10.25;100.00;100118.48;4917647;57;1140577;-76
2024/03/16 05:14:16;;;;;;;7.73;6.00;;;;;;;10.25;100.00;100140.47;5033789;56;1142969;-76
2024/03/16 05:19:22;;;;;;;9.63;6.78;;;;;;;10.21;100.00;100137.75;5040772;56;1140837;-77
2024/03/16 05:24:28;;;;;;;5.37;4.63;;;;;;;10.20;100.00;100146.63;4918093;56;1140634;-74
2024/03/16 05:29:33;;;;;;;9.47;5.47;;;;;;;10.20;100.00;100142.19;4926737;57;1140623;-75
2024/03/16 05:34:39;;;;;;;8.90;4.90;;;;;;;10.21;100.00;100145.19;5098959;56;1140930;-73
2024/03/16 05:39:45;;;;;;;8.48;5.58;;;;;;;10.20;100.00;100138.23;5079392;56;1150478;-74
2024/03/16 05:44:51;;;;;;;7.67;6.47;;;;;;;10.15;100.00;100144.33;5079004;56;1140898;-74
2024/03/16 05:49:56;;;;;;;12.68;6.60;;;;;;;10.13;100.00;100140.97;5098795;56;1140611;-74
2024/03/16 05:55:02;;;;;;;13.83;6.17;;;;;;;10.11;100.00;100148.17;4996237;57;1142743;-73
2024/03/16 06:00:19;;;;;;;11.17;6.17;;;;;;;10.16;100.00;100149.13;4995426;56;1142820;-75
2024/03/16 06:05:16;;;;;;;8.23;5.37;;;;;;;10.16;100.00;100149.97;4979660;57;1143241;-77
2024/03/16 06:10:22;;;;;;;7.65;5.53;;;;;;;10.17;100.00;100149.01;5015668;57;1141108;-75
2024/03/16 06:15:28;;;;;;;7.80;5.30;;;;;;;10.18;100.00;100151.17;5105776;56;1141313;-73
2024/03/16 06:20:33;;;;;;;7.67;5.08;;;;;;;10.18;100.00;100148.08;5120204;56;1140634;-76
2024/03/16 06:25:49;;;;;;;6.07;4.87;;;;;;;10.19;100.00;100145.80;5098786;56;1140754;-75
2024/03/16 06:30:59;;;;;;;9.93;4.75;;;;;;;10.25;100.00;100140.95;5098640;56;1140585;-77
2024/03/16 06:36:02;;;;;;;5.97;4.60;;;;;;;10.28;100.00;100153.92;5050970;56;1140703;-76
2024/03/16 06:41:08;;;;;;;8.20;4.57;;;;;;;10.27;100.00;100151.76;5119071;56;1140744;-72
2024/03/16 06:46:13;;;;;;;5.37;4.77;;;;;;;10.30;100.00;100157.28;5099412;56;1140705;-77
2024/03/16 06:51:19;;;;;;;8.17;4.50;;;;;;;10.32;100.00;100172.53;5098582;56;1140985;-75
2024/03/16 06:56:24;;;;;;;6.70;4.60;;;;;;;10.35;100.00;100180.22;5115265;56;1140569;-76
2024/03/16 07:01:30;;;;;;;6.43;4.77;;;;;;;10.39;100.00;100189.07;5050483;55;1140636;-75
2024/03/16 07:06:35;;;;;;;8.90;4.57;;;;;;;10.49;100.00;100191.82;5046253;57;1141145;-73
2024/03/16 07:11:42;;;;;;;9.35;4.87;;;;;;;10.67;100.00;100185.02;5116132;56;1140735;-76
2024/03/16 07:16:48;;;;;;;4.65;4.25;;;;;;;10.84;100.00;100189.73;5011960;57;1141016;-76
2024/03/16 07:21:53;;;;;;;5.33;4.07;;;;;;;11.01;100.00;100197.55;5075755;56;1141283;-76
2024/03/16 07:26:59;;;;;;;6.28;4.75;;;;;;;11.10;100.00;100201.24;5075283;56;1141081;-72
2024/03/16 07:32:05;;;;;;;6.87;4.33;;;;;;;11.22;100.00;100199.71;5098475;56;1140953;-72
2024/03/16 07:37:14;;;;;;;5.60;4.80;;;;;;;11.45;100.00;100199.56;5079109;56;1140709;-78
2024/03/16 07:42:18;;;;;;;4.93;3.90;;;;;;;11.66;100.00;100196.84;5079951;56;1140701;-76
2024/03/16 07:47:23;;;;;;;5.63;4.40;;;;;;;11.76;100.00;100199.94;5099515;56;1141017;-77
2024/03/16 07:52:29;;;;;;;4.17;3.80;;;;;;;11.82;100.00;100202.02;5055309;56;1140556;-79
2024/03/16 07:57:35;;;;;;;3.77;3.47;;;;;;;11.88;100.00;100204.63;5079675;56;1140903;-75
2024/03/16 08:02:40;;;;;;;5.87;4.20;;;;;;;11.94;100.00;100201.42;5066138;56;1140748;-73
2024/03/16 08:07:47;;;;;;;50.43;19.10;;;;;;;11.97;100.00;100202.00;5071391;56;1140489;-78
2024/03/16 08:12:52;;;;;;;14.80;5.10;;;;;;;12.12;100.00;100211.73;5100888;56;1145174;-76
2024/03/16 08:18:00;;;;;;;14.28;3.83;;;;;;;12.33;100.00;100208.98;5069852;55;1142813;-80
2024/03/16 08:23:05;;;;;;;10.43;5.10;;;;;;;12.52;100.00;100209.50;5096747;56;1142970;-75
2024/03/16 08:28:11;;;;;;;28.97;9.77;;;;;;;12.52;100.00;100213.48;5098916;56;1142939;-77
2024/03/16 08:33:16;;;;;;;8.53;4.73;;;;;;;12.50;100.00;100226.87;5049453;56;1143108;-78
2024/03/16 08:38:23;;;;;;;9.67;4.90;;;;;;;12.46;100.00;100227.28;5045731;56;1140803;-74
2024/03/16 08:43:29;;;;;;;13.17;5.63;;;;;;;12.36;100.00;100227.28;5097974;56;1140762;-76
2024/03/16 08:48:35;;;;;;;8.50;5.33;;;;;;;12.23;100.00;100224.86;5098586;56;1143074;-72
2024/03/16 08:53:41;;;;;;;52.50;18.07;;;;;;;12.16;100.00;100222.91;5119265;56;1140438;-75
2024/03/16 08:58:47;;;;;;;36.93;11.00;;;;;;;12.22;100.00;100225.83;5042949;56;1145406;-73
2024/03/16 09:03:53;;;;;;;9.80;4.40;;;;;;;12.25;100.00;100230.87;4980010;57;1144969;-74
2024/03/16 09:09:01;;;;;;;12.33;5.92;;;;;;;12.30;100.00;100229.14;4950938;57;1140957;-74
2024/03/16 09:14:07;;;;;;;18.17;6.47;;;;;;;12.36;100.00;100223.30;4856053;59;1142948;-74
2024/03/16 09:19:12;;;;;;;12.43;6.60;;;;;;;12.39;100.00;100227.47;5043018;55;1142937;-72
2024/03/16 09:24:18;;;;;;;16.93;9.13;;;;;;;12.33;100.00;100224.89;5078788;56;1142651;-74
2024/03/16 09:29:24;;;;;;;12.73;6.87;;;;;;;12.43;100.00;100232.37;5096889;56;1142919;-74
2024/03/16 09:34:29;;;;;;;18.27;9.40;;;;;;;12.72;100.00;100228.89;5060561;56;1142940;-76
2024/03/16 09:39:35;;;;;;;27.80;13.00;;;;;;;12.93;100.00;100229.59;5078720;55;1142856;-74
2024/03/16 09:44:43;;;;;;;15.77;6.50;;;;;;;13.19;100.00;100232.02;5054398;56;1144610;-76
2024/03/16 09:49:48;;;;;;;7.93;4.73;;;;;;;13.43;100.00;100234.71;4996250;56;1142934;-73
2024/03/16 09:54:54;;;;;;;13.87;6.53;;;;;;;13.54;100.00;100234.53;5057603;56;1140996;-77
2024/03/16 10:00:00;;;;;;;13.88;5.40;;;;;;;13.65;100.00;100226.38;5078770;56;1142965;-72
2024/03/16 10:05:11;;;;;;;8.87;4.40;;;;;;;13.83;100.00;100229.94;5099064;56;1143021;-75
2024/03/16 10:10:19;;;;;;;14.37;5.30;;;;;;;14.03;100.00;100226.70;5047504;55;1140956;-74
2024/03/16 10:15:25;;;;;;;9.33;3.80;;;;;;;14.26;100.00;100235.93;5042548;56;1142950;-76
2024/03/16 10:20:31;;;;;;;10.00;5.27;;;;;;;14.17;100.00;100232.84;5112614;56;1140739;-78
2024/03/16 10:25:37;;;;;;;13.43;3.87;;;;;;;14.24;100.00;100228.59;5098232;56;1143015;-75
2024/03/16 10:30:45;;;;;;;6.33;3.67;;;;;;;14.40;100.00;100230.63;5098412;56;1142948;-73
2024/03/16 10:35:55;;;;;;;14.63;5.43;;;;;;;14.52;100.00;100228.08;5118053;56;1140763;-75
2024/03/16 10:41:05;;;;;;;13.30;4.67;;;;;;;14.67;100.00;100228.38;5093381;56;1142990;-78
2024/03/16 10:46:15;;;;;;;16.48;3.47;;;;;;;14.64;100.00;100228.72;5031915;55;1142885;-76
2024/03/16 10:51:19;;;;;;;11.80;5.10;;;;;;;14.65;100.00;100229.89;5043537;56;1142547;-75
2024/03/16 10:56:32;;;;;;;11.53;3.93;;;;;;;14.62;100.00;100241.33;5028155;55;1142852;-71
2024/03/16 11:01:39;;;;;;;7.93;2.70;;;;;;;14.53;100.00;100228.42;5015884;56;1142990;-76
2024/03/16 11:06:43;;;;;;;11.67;3.13;;;;;;;14.83;100.00;100228.53;5073551;55;1140901;-74
2024/03/16 11:11:52;;;;;;;10.10;4.47;;;;;;;14.83;100.00;100228.53;5093715;55;1142806;-77
2024/03/16 11:16:57;;;;;;;9.00;3.08;;;;;;;15.08;100.00;100225.09;5078894;56;1142873;-75
2024/03/16 11:22:03;;;;;;;6.00;3.10;;;;;;;15.19;100.00;100225.83;5080004;56;1140748;-77
2024/03/16 11:27:12;;;;;;;13.17;3.50;;;;;;;15.13;100.00;100227.27;5100232;56;1140859;-74
2024/03/16 11:32:17;;;;;;;9.63;4.10;;;;;;;14.97;100.00;100229.31;5056177;57;1143011;-77
2024/03/16 11:37:23;;;;;;;10.53;3.97;;;;;;;14.86;100.00;100222.06;5035001;56;1140595;-76
2024/03/16 11:42:29;;;;;;;8.20;3.50;;;;;;;14.87;100.00;100208.61;4994036;57;1142578;-74
2024/03/16 11:47:34;;;;;;;8.30;2.63;;;;;;;14.94;100.00;100215.00;4996598;55;1140737;-73
2024/03/16 11:52:42;;;;;;;12.27;3.03;;;;;;;15.14;100.00;100208.47;4996957;56;1141053;-74
2024/03/16 11:57:48;;;;;;;11.10;3.33;;;;;;;15.09;100.00;100218.78;5016352;56;1142941;-77
2024/03/16 12:02:55;;;;;;;5.67;2.75;;;;;;;14.94;100.00;100211.00;4997002;56;1143042;-75
2024/03/16 12:08:04;;;;;;;6.50;2.37;;;;;;;14.86;100.00;100204.76;5056313;56;1140701;-75
2024/03/16 12:13:09;;;;;;;7.40;3.03;;;;;;;14.76;100.00;100206.19;5040093;56;1140986;-80
2024/03/16 12:18:16;;;;;;;9.83;3.80;;;;;;;14.88;100.00;100213.44;5040248;56;1140782;-77
2024/03/16 12:23:24;;;;;;;11.33;3.27;;;;;;;15.00;100.00;100213.03;5048529;56;1140955;-74
2024/03/16 12:28:30;;;;;;;12.40;3.83;;;;;;;15.00;100.00;100210.37;5046994;56;1142892;-75
2024/03/16 12:33:35;;;;;;;14.20;4.03;;;;;;;15.17;100.00;100202.00;5006327;56;1142956;-78
2024/03/16 12:38:41;;;;;;;8.60;2.72;;;;;;;15.23;100.00;100200.55;4963191;56;1143071;-79
2024/03/16 12:43:46;;;;;;;16.17;4.87;;;;;;;15.22;100.00;100200.21;5056326;55;1140869;-76
2024/03/16 12:48:52;;;;;;;6.57;2.00;;;;;;;15.07;100.00;100196.78;5049245;55;1142806;-77
2024/03/16 12:53:58;;;;;;;17.53;4.17;;;;;;;14.88;100.00;100195.63;5080293;55;1140938;-78
2024/03/16 12:59:04;;;;;;;14.70;2.30;;;;;;;14.80;100.00;100192.08;5099014;55;1143012;-72
2024/03/16 13:04:10;;;;;;;5.90;1.60;;;;;;;14.84;100.00;100187.60;5118977;56;1143008;-73
2024/03/16 13:09:16;;;;;;;8.23;1.63;;;;;;;15.04;100.00;100185.11;5107234;56;1140746;-76
2024/03/16 13:14:22;;;;;;;6.33;1.77;;;;;;;15.23;100.00;100184.56;5099229;56;1140862;-75
2024/03/16 13:19:27;;;;;;;5.23;2.57;;;;;;;15.14;100.00;100186.33;5118812;56;1140730;-74
2024/03/16 13:24:33;;;;;;;5.07;1.27;;;;;;;14.94;100.00;100189.70;5098090;56;1140930;-73
2024/03/16 13:29:42;;;;;;;5.17;1.30;;;;;;;14.76;100.00;100190.22;5098406;56;1140736;-76
2024/03/16 13:34:47;;;;;;;10.37;2.67;;;;;;;14.46;100.00;100219.39;5119796;56;1140964;-74
2024/03/16 13:39:53;;;;;;;11.57;2.20;;;;;;;13.80;100.00;100205.47;5098789;56;1142860;-73
2024/03/16 13:44:58;;;;;;;9.10;3.20;;;;;;;13.41;100.00;100201.65;5097491;55;1142762;-74
2024/03/16 13:50:05;;;;;;;11.70;3.77;;;;;;;13.27;100.00;100198.97;5098940;55;1140910;-76
2024/03/16 13:55:17;;;;;;;10.20;3.80;;;;;;;13.29;100.00;100196.17;5093703;56;1142815;-73
2024/03/16 14:00:18;;;;;;;6.40;2.27;;;;;;;13.37;100.00;100188.30;5053623;55;1142696;-76
2024/03/16 14:05:24;;;;;;;5.13;2.37;;;;;;;13.43;100.00;100182.91;5101234;56;1140975;-75
2024/03/16 14:10:32;;;;;;;10.47;2.63;;;;;;;13.43;100.00;100179.77;5098805;56;1140933;-74
2024/03/16 14:15:38;;;;;;;13.37;2.93;;;;;;;13.45;100.00;100179.10;5029655;55;1142800;-75
2024/03/16 14:20:44;;;;;;;17.27;3.80;;;;;;;13.51;100.00;100174.55;4998303;56;1142790;-75
2024/03/16 14:25:50;;;;;;;11.27;3.73;;;;;;;13.60;100.00;100171.00;5054551;56;1148834;-76
2024/03/16 14:30:56;;;;;;;17.15;4.45;;;;;;;13.85;100.00;100173.97;5078819;56;1143130;-76
2024/03/16 14:36:01;;;;;;;9.83;2.53;;;;;;;14.07;100.00;100181.03;5079106;56;1142882;-74
2024/03/16 14:41:07;;;;;;;9.68;3.20;;;;;;;14.16;100.00;100182.46;5079256;56;1141000;-74
2024/03/16 14:46:12;;;;;;;5.80;2.13;;;;;;;14.09;100.00;100191.03;5099322;56;1140863;-75
2024/03/16 14:51:18;;;;;;;5.23;1.93;;;;;;;14.06;100.00;100189.98;5068503;57;1140967;-76
2024/03/16 14:56:23;;;;;;;6.40;2.57;;;;;;;13.99;100.00;100183.61;5079413;55;1140513;-75
2024/03/16 15:01:29;;;;;;;5.53;2.00;;;;;;;13.94;100.00;100187.69;5096002;56;1141081;-74
2024/03/16 15:06:35;;;;;;;5.07;2.33;;;;;;;13.87;100.00;100194.11;5076937;56;1141051;-76
2024/03/16 15:11:40;;;;;;;2.43;1.30;;;;;;;13.78;100.00;100194.14;5080107;56;1140909;-75
2024/03/16 15:16:46;;;;;;;3.27;1.00;;;;;;;13.75;100.00;100198.45;5099509;57;1140954;-75
2024/03/16 15:21:54;;;;;;;2.08;1.37;;;;;;;13.71;100.00;100205.38;5075848;56;1140750;-73
2024/03/16 15:32:24;;;;;;;1.15;1.00;;;;;;;13.79;100.00;100205.95;5079038;57;1141095;-72
2024/03/16 15:37:30;;;;;;;5.47;2.27;;;;;;;13.89;100.00;100208.59;5100158;56;1140953;-75
2024/03/16 15:42:36;;;;;;;1.50;1.30;;;;;;;13.85;100.00;100212.52;5079845;56;1140908;-73
2024/03/16 15:47:41;;;;;;;4.30;2.77;;;;;;;13.75;100.00;100224.50;5059368;57;1140927;-74
2024/03/16 15:52:50;;;;;;;6.03;3.23;;;;;;;13.67;100.00;100236.37;5055216;56;1141311;-75
2024/03/16 15:57:57;;;;;;;7.97;4.43;;;;;;;13.56;100.00;100289.70;5020243;56;1140834;-74
2024/03/16 16:03:05;;;;;;;10.57;7.77;;;;;;;12.61;100.00;100313.45;5041084;56;1140779;-74
2024/03/16 16:08:11;;;;;;;2.67;1.67;;;;;;;11.90;100.00;100321.45;5047692;56;1142869;-74
2024/03/16 16:13:22;;;;;;;4.13;1.70;;;;;;;11.54;100.00;100339.13;4979036;57;1140734;-75
2024/03/16 16:18:24;;;;;;;6.03;3.33;;;;;;;11.33;100.00;100342.23;4890418;57;1140923;-75
2024/03/16 16:23:30;;;;;;;8.80;3.80;;;;;;;11.13;100.00;100355.83;4853639;58;1140688;-75
2024/03/16 16:28:36;;;;;;;4.67;2.50;;;;;;;11.02;100.00;100363.30;4950250;57;1141064;-74
2024/03/16 16:33:41;;;;;;;6.10;3.00;;;;;;;10.96;100.00;100370.92;5016042;56;1140560;-76
2024/03/16 16:38:47;;;;;;;4.00;2.87;;;;;;;10.89;100.00;100376.70;4963706;55;1140795;-76
2024/03/16 16:43:52;;;;;;;4.53;3.80;;;;;;;10.87;100.00;100391.85;4932019;56;1140819;-76
2024/03/16 16:49:03;;;;;;;5.20;3.45;;;;;;;10.90;100.00;100396.91;5055784;55;1140675;-75
2024/03/16 16:54:09;;;;;;;11.07;4.03;;;;;;;10.96;100.00;100401.35;5099464;55;1140807;-74
2024/03/16 16:59:14;;;;;;;3.20;2.30;;;;;;;10.94;100.00;100406.77;5099870;55;1142850;-75
2024/03/16 17:04:20;;;;;;;3.10;2.60;;;;;;;10.96;100.00;100432.63;5119641;56;1140590;-74
2024/03/16 17:09:25;;;;;;;7.63;2.60;;;;;;;10.80;100.00;100441.43;5107641;56;1141152;-75
2024/03/16 17:14:32;;;;;;;5.77;4.80;;;;;;;10.63;100.00;100456.47;5095126;55;1140796;-74
2024/03/16 17:19:38;;;;;;;11.03;6.27;;;;;;;10.54;100.00;100476.05;5119177;55;1140638;-74
2024/03/16 17:24:44;;;;;;;6.30;4.00;;;;;;;10.39;100.00;100483.03;5050121;56;1143130;-75
2024/03/16 17:29:49;;;;;;;11.63;7.50;;;;;;;10.15;100.00;100500.25;4995660;57;1140967;-74
2024/03/16 17:34:55;;;;;;;10.80;5.20;;;;;;;9.87;100.00;100500.17;5016110;57;1142897;-74
2024/03/16 17:40:03;;;;;;;10.03;6.40;;;;;;;9.63;100.00;100519.14;5024695;56;1140908;-74
2024/03/16 17:45:08;;;;;;;10.80;6.40;;;;;;;9.47;100.00;100517.63;5077029;55;1141015;-75
2024/03/16 17:50:14;;;;;;;11.50;5.33;;;;;;;9.38;100.00;100539.42;5098798;56;1141032;-75
2024/03/16 17:55:20;;;;;;;12.30;6.47;;;;;;;9.23;100.00;100551.56;5079755;55;1140849;-75
2024/03/16 18:00:29;;;;;;;18.63;7.07;;;;;;;9.11;100.00;100555.45;5079494;56;1140875;-75
2024/03/16 18:05:34;;;;;;;10.00;5.23;;;;;;;9.01;100.00;100562.81;5099301;56;1140999;-75
2024/03/16 18:10:39;;;;;;;10.57;5.07;;;;;;;8.96;100.00;100584.23;5039518;56;1140903;-75
2024/03/16 18:15:45;;;;;;;10.82;3.55;;;;;;;8.91;100.00;100598.67;4992296;57;1140690;-74
2024/03/16 18:20:50;;;;;;;9.50;3.17;;;;;;;8.76;100.00;100600.58;5011316;57;1140816;-75
2024/03/16 18:25:57;;;;;;;12.53;3.83;;;;;;;8.64;100.00;100606.22;5006234;56;1138617;-74
2024/03/16 18:31:04;;;;;;;9.63;3.47;;;;;;;8.42;100.00;100619.15;5024167;56;1140935;-74
2024/03/16 18:36:09;;;;;;;13.35;4.65;;;;;;;8.31;100.00;100635.66;5039908;56;1138843;-75
2024/03/16 18:41:17;;;;;;;7.83;3.60;;;;;;;8.22;100.00;100647.28;5118964;55;1140928;-74
2024/03/16 18:46:25;;;;;;;13.33;4.53;;;;;;;8.17;100.00;100652.00;5099592;55;1138774;-74
2024/03/16 18:51:32;;;;;;;20.07;5.77;;;;;;;8.08;100.00;100658.73;5093842;56;1140729;-76
2024/03/16 18:56:38;;;;;;;15.73;5.50;;;;;;;8.02;100.00;100667.02;5119277;55;1140599;-75
2024/03/16 19:01:48;;;;;;;16.30;4.10;;;;;;;7.92;100.00;100672.03;5099047;56;1140954;-74
2024/03/16 19:06:51;;;;;;;8.70;4.20;;;;;;;7.87;100.00;100682.48;5043779;56;1140804;-74
2024/03/16 19:11:56;;;;;;;16.70;4.27;;;;;;;7.81;100.00;100692.92;5075750;56;1138987;-77
2024/03/16 19:17:02;;;;;;;9.00;2.52;;;;;;;7.78;100.00;100707.63;5016595;57;1138709;-76
2024/03/16 19:22:07;;;;;;;9.60;3.27;;;;;;;7.71;100.00;100716.83;5047531;55;1138621;-75
2024/03/16 19:27:13;;;;;;;16.62;3.27;;;;;;;7.62;100.00;100714.78;5116566;56;1138796;-75
2024/03/16 19:32:19;;;;;;;9.07;2.90;;;;;;;7.61;100.00;100715.72;5027223;56;1140853;-75
2024/03/16 19:37:25;;;;;;;7.70;3.37;;;;;;;7.58;100.00;100729.91;4996465;56;1138790;-75
2024/03/16 19:42:30;;;;;;;12.57;3.30;;;;;;;7.48;100.00;100731.43;5053339;57;1138584;-76
2024/03/16 19:47:36;;;;;;;13.73;3.90;;;;;;;7.46;100.00;100735.09;5012863;56;1140995;-76
2024/03/16 19:52:42;;;;;;;10.50;4.03;;;;;;;7.43;100.00;100739.22;4994620;56;1140769;-77
2024/03/16 19:57:48;;;;;;;17.63;6.87;;;;;;;7.38;100.00;100740.34;5084221;56;1140519;-75
2024/03/16 20:02:53;;;;;;;21.10;6.97;;;;;;;7.39;100.00;100749.92;5040278;56;1140681;-77
2024/03/16 20:07:59;;;;;;;16.30;6.23;;;;;;;7.35;100.00;100754.14;5053898;56;1140607;-76
2024/03/16 20:13:05;;;;;;;12.53;4.60;;;;;;;7.27;100.00;100762.51;5064917;56;1140807;-75
2024/03/16 20:18:10;;;;;;;12.88;5.12;;;;;;;7.24;100.00;100765.31;5086060;56;1140984;-76
2024/03/16 20:23:16;;;;;;;14.93;5.40;;;;;;;7.24;100.00;100774.99;5079027;56;1140953;-75
2024/03/16 20:28:23;;;;;;;14.47;5.33;;;;;;;7.19;100.00;100769.15;5055341;56;1140525;-73
2024/03/16 20:33:29;;;;;;;12.03;4.80;;;;;;;7.12;100.00;100773.09;5099259;56;1140692;-75
2024/03/16 20:38:35;;;;;;;18.30;5.53;;;;;;;7.09;100.00;100774.59;5059465;56;1140642;-77
2024/03/16 20:43:41;;;;;;;13.47;4.93;;;;;;;7.06;100.00;100781.72;4996768;56;1140860;-74
2024/03/16 20:48:48;;;;;;;15.13;5.37;;;;;;;7.09;100.00;100785.95;5072027;56;1141217;-74
2024/03/16 20:53:54;;;;;;;21.20;6.40;;;;;;;7.03;100.00;100785.84;5077542;57;1140732;-74
2024/03/16 20:59:01;;;;;;;19.90;5.27;;;;;;;6.97;100.00;100795.41;5064111;56;1140727;-76
2024/03/16 21:04:06;;;;;;;13.88;5.75;;;;;;;6.87;100.00;100791.64;5078730;56;1140639;-75
2024/03/16 21:09:12;;;;;;;13.55;4.87;;;;;;;6.80;100.00;100798.64;5099767;56;1140572;-75
2024/03/16 21:14:18;;;;;;;17.47;5.03;;;;;;;6.72;100.00;100804.81;5079459;56;1140765;-76
2024/03/16 21:19:23;;;;;;;11.97;4.23;;;;;;;6.63;100.00;100803.54;5078933;57;1140709;-76
2024/03/16 21:24:29;;;;;;;12.77;4.70;;;;;;;6.56;100.00;100814.03;5086757;56;1141087;-75
2024/03/16 21:29:35;;;;;;;14.07;4.08;;;;;;;6.48;100.00;100824.95;5079558;56;1140884;-74
2024/03/16 21:34:40;;;;;;;10.40;4.30;;;;;;;6.46;100.00;100832.53;5095075;56;1140659;-74
2024/03/16 21:39:46;;;;;;;9.43;3.23;;;;;;;6.42;100.00;100832.31;5119141;56;1138564;-74
2024/03/16 21:44:51;;;;;;;9.93;3.20;;;;;;;6.38;100.00;100828.19;5099314;56;1138838;-75
2024/03/16 21:49:59;;;;;;;15.28;3.58;;;;;;;6.34;100.00;100830.98;5118062;56;1139237;-76
2024/03/16 21:55:07;;;;;;;13.20;3.67;;;;;;;6.34;100.00;100842.80;5082848;56;1140585;-75
2024/03/16 22:00:14;;;;;;;11.28;4.33;;;;;;;6.30;100.00;100848.30;5119474;56;1138619;-74
2024/03/16 22:05:20;;;;;;;12.60;3.47;;;;;;;6.25;100.00;100849.88;5100855;56;1138800;-75
2024/03/16 22:10:25;;;;;;;10.37;3.23;;;;;;;6.26;100.00;100855.48;5105541;56;1140667;-75
2024/03/16 22:15:31;;;;;;;15.78;4.58;;;;;;;6.22;100.00;100861.86;5119607;56;1138865;-76
2024/03/16 22:20:36;;;;;;;7.43;2.77;;;;;;;6.18;100.00;100862.09;5099535;56;1138749;-75
2024/03/16 22:25:42;;;;;;;15.38;3.55;;;;;;;6.16;100.00;100863.49;5099910;56;1136358;-76
2024/03/16 22:30:47;;;;;;;14.83;4.37;;;;;;;6.15;100.00;100855.23;5119618;56;1138562;-75
2024/03/16 22:35:53;;;;;;;11.73;3.33;;;;;;;6.14;100.00;100868.44;5086732;56;1138880;-74
2024/03/16 22:40:59;;;;;;;8.28;2.75;;;;;;;6.09;100.00;100874.42;5086493;56;1138751;-75
2024/03/16 22:46:05;;;;;;;9.47;2.80;;;;;;;6.06;100.00;100879.36;5064574;57;1139119;-75
2024/03/16 22:51:10;;;;;;;18.80;3.37;;;;;;;6.05;100.00;100876.81;5096476;56;1136860;-75
2024/03/16 22:56:16;;;;;;;11.17;3.23;;;;;;;5.98;100.00;100881.53;5079342;56;1138684;-75